createdAt,value
2023-07-03T00:03:52.364Z,8.7
2023-07-03T00:09:36.820Z,8.3
2023-07-03T00:15:22.336Z,7.5
2023-07-03T00:21:06.795Z,7.7
2023-07-03T00:26:51.137Z,9.6
2023-07-03T00:32:35.547Z,9.2
2023-07-03T00:38:19.997Z,8.2
2023-07-03T00:44:04.307Z,7.8
2023-07-03T00:49:48.811Z,8.9
2023-07-03T00:55:34.738Z,7.6
2023-07-03T01:01:24.299Z,9.1
2023-07-03T01:07:11.261Z,11
2023-07-03T01:12:57.947Z,11.6
2023-07-03T01:18:42.836Z,9
2023-07-03T01:24:39.956Z,7.3
2023-07-03T01:30:25.940Z,10
2023-07-03T01:36:11.156Z,9.8
2023-07-03T01:41:55.554Z,9.1
2023-07-03T01:47:40.200Z,9.4
2023-07-03T01:53:28.964Z,7.5
2023-07-03T01:59:14.657Z,11
2023-07-03T02:05:02.510Z,8.5
2023-07-03T02:10:46.677Z,9.9
2023-07-03T02:16:31.255Z,9.2
2023-07-03T02:22:15.616Z,9.8
2023-07-03T02:28:00.251Z,9.6
2023-07-03T02:33:44.420Z,10.5
2023-07-03T02:39:28.632Z,9.3
2023-07-03T02:45:13.618Z,7.5
2023-07-03T02:50:59.577Z,8.6
2023-07-03T02:56:43.833Z,9.7
2023-07-03T03:02:28.169Z,11.2
2023-07-03T03:08:12.575Z,10.4
2023-07-03T03:13:57.025Z,8.7
2023-07-03T03:19:41.208Z,10
2023-07-03T03:25:25.688Z,8.1
2023-07-03T03:31:10.177Z,9.3
2023-07-03T03:36:54.563Z,7.7
2023-07-03T03:42:38.783Z,8.4
2023-07-03T03:48:23.351Z,10.2
2023-07-03T03:54:08.423Z,7.8
2023-07-03T03:59:52.620Z,9
2023-07-03T04:05:36.996Z,9.4
2023-07-03T04:11:21.058Z,8.9
2023-07-03T04:17:05.613Z,9.8
2023-07-03T04:22:49.801Z,11.3
2023-07-03T04:28:33.925Z,9.9
2023-07-03T04:34:18.188Z,8.5
2023-07-03T04:40:02.623Z,7.7
2023-07-03T04:45:48.049Z,9.6
2023-07-03T04:51:32.758Z,10.1
2023-07-03T04:57:17.153Z,8.8
2023-07-03T05:03:02.082Z,9.9
2023-07-03T05:08:46.447Z,10.9
2023-07-03T05:14:30.693Z,8.8
2023-07-03T05:20:16.634Z,8.5
2023-07-03T05:26:00.873Z,9.5
2023-07-03T05:31:45.367Z,10.2
2023-07-03T05:37:29.642Z,8.4
2023-07-03T05:43:13.900Z,10.6
2023-07-03T05:48:58.144Z,10.3
2023-07-03T05:54:42.446Z,9.6
2023-07-03T06:00:27.060Z,10.4
2023-07-03T06:06:11.353Z,10.5
2023-07-03T06:11:55.602Z,10.3
2023-07-03T06:17:40.253Z,9.5
2023-07-03T06:23:24.608Z,8.6
2023-07-03T06:29:09.940Z,9
2023-07-03T06:34:56.232Z,10.2
2023-07-03T06:40:40.812Z,9.1
2023-07-03T06:46:25.168Z,9.6
2023-07-03T06:52:09.674Z,11
2023-07-03T06:57:54.003Z,9.4
2023-07-03T07:03:38.890Z,10.2
2023-07-03T07:09:23.287Z,9.8
2023-07-03T07:15:07.881Z,7.7
2023-07-03T07:20:52.272Z,7.9
2023-07-03T07:26:37.068Z,6.9
2023-07-03T07:32:25.168Z,7
2023-07-03T07:38:09.436Z,7.4
2023-07-03T07:43:55.225Z,8.1
2023-07-03T07:49:39.454Z,8.6
2023-07-03T07:55:24.580Z,6.2
2023-07-03T08:01:09.882Z,6.6
2023-07-03T08:06:54.910Z,6.8
2023-07-03T08:12:39.300Z,6.9
2023-07-03T08:18:23.614Z,6.8
2023-07-03T08:24:12.047Z,4.7
2023-07-03T08:29:59.650Z,7.6
2023-07-03T08:41:54.866Z,6.7
2023-07-03T08:47:39.420Z,6.3
2023-07-03T08:53:24.990Z,6.9
2023-07-03T08:59:09.871Z,8.4
2023-07-03T09:05:02.389Z,5.8
2023-07-03T09:10:51.732Z,7.9
2023-07-03T09:16:36.284Z,7.8
2023-07-03T09:22:25.772Z,7.8
2023-07-03T09:28:11.963Z,7.3
2023-07-03T09:33:56.458Z,6.1
2023-07-03T09:39:41.447Z,6.7
2023-07-03T09:45:27.171Z,8.5
2023-07-03T09:51:17.786Z,9
2023-07-03T09:57:02.125Z,5.5
2023-07-03T10:08:47.056Z,6.2
2023-07-03T10:14:36.170Z,5.8
2023-07-03T10:20:30.506Z,6.1
2023-07-03T10:26:16.215Z,6.9
2023-07-03T10:32:03.106Z,4.8
2023-07-03T10:37:49.542Z,7.7
2023-07-03T10:43:37.359Z,6
2023-07-03T10:49:25.364Z,4.7
2023-07-03T10:55:15.681Z,3.8
2023-07-03T11:01:04.585Z,6.7
2023-07-03T11:06:53.346Z,4.3
2023-07-03T11:12:42.968Z,6
2023-07-03T11:24:43.562Z,6
2023-07-03T11:30:28.480Z,5.6
2023-07-03T11:36:19.294Z,5.9
2023-07-03T11:48:04.545Z,7
2023-07-03T11:53:51.376Z,7.8
2023-07-03T11:59:40.063Z,6
2023-07-03T12:05:35.529Z,6.7
2023-07-03T12:11:20.161Z,6.5
2023-07-03T12:17:05.193Z,5.2
2023-07-03T12:22:50.345Z,6.8
2023-07-03T12:28:35.657Z,6.5
2023-07-03T12:34:25.087Z,8.1
2023-07-03T12:40:12.449Z,8.4
2023-07-03T12:45:58.597Z,8
2023-07-03T12:51:50.576Z,7.3
2023-07-03T12:57:35.648Z,5.9
2023-07-03T13:03:22.026Z,8
2023-07-03T13:09:07.405Z,9
2023-07-03T13:15:02.039Z,7.2
2023-07-03T13:20:51.497Z,7.3
2023-07-03T13:26:35.845Z,6.8
2023-07-03T13:32:21.470Z,8
2023-07-03T13:38:22.348Z,9.3
2023-07-03T13:44:06.624Z,8.6
2023-07-03T13:49:50.764Z,7.5
2023-07-03T13:55:35.298Z,7.4
2023-07-03T14:01:29.260Z,8.6
2023-07-03T14:07:14.530Z,12.4
2023-07-03T14:12:58.817Z,12.4
2023-07-03T14:18:43.579Z,9.5
2023-07-03T14:24:28.140Z,9.5
2023-07-03T14:30:13.504Z,8.1
2023-07-03T14:35:57.898Z,8.7
2023-07-03T14:41:42.338Z,8.8
2023-07-03T14:47:27.361Z,10
2023-07-03T14:53:11.877Z,8.3
2023-07-03T14:58:56.075Z,11.8
2023-07-03T15:04:40.898Z,9
2023-07-03T15:10:25.425Z,6.6
2023-07-03T15:16:09.823Z,9
2023-07-03T15:21:53.962Z,9.5
2023-07-03T15:27:38.239Z,8.2
2023-07-03T15:33:22.495Z,9.5
2023-07-03T15:39:06.868Z,7.8
2023-07-03T15:44:56.251Z,8.3
2023-07-03T15:50:40.439Z,7.9
2023-07-03T15:56:25.957Z,6
2023-07-03T16:02:10.929Z,7.8
2023-07-03T16:07:58.287Z,8.2
2023-07-03T16:13:43.355Z,6.2
2023-07-03T16:19:30.464Z,7.8
2023-07-03T16:25:15.505Z,6.3
2023-07-03T16:31:12.893Z,5.2
2023-07-03T16:36:57.347Z,8.1
2023-07-03T16:42:42.121Z,6.6
2023-07-03T16:48:26.478Z,10.5
2023-07-03T16:54:10.959Z,5.1
2023-07-03T16:59:56.103Z,8.2
2023-07-03T17:05:41.937Z,9.9
2023-07-03T17:11:26.614Z,7.5
2023-07-03T17:17:11.055Z,7.7
2023-07-03T17:22:55.430Z,8.4
2023-07-03T17:28:39.569Z,8.1
2023-07-03T17:34:23.824Z,8.5
2023-07-03T17:40:08.542Z,7.2
2023-07-03T17:45:55.021Z,5
2023-07-03T17:51:39.729Z,8.1
2023-07-03T17:57:24.098Z,7.5
2023-07-03T18:03:08.727Z,9.4
2023-07-03T18:08:53.871Z,8.2
2023-07-03T18:14:38.021Z,6.1
2023-07-03T18:20:22.257Z,6.7
2023-07-03T18:26:06.752Z,6.3
2023-07-03T18:31:51.411Z,7.7
2023-07-03T18:37:35.853Z,5
2023-07-03T18:43:20.881Z,6.4
2023-07-03T18:49:05.246Z,8.3
2023-07-03T18:54:49.512Z,5.3
2023-07-03T19:00:33.822Z,8
2023-07-03T19:06:20.264Z,5.9
2023-07-03T19:12:07.841Z,5.8
2023-07-03T19:17:52.500Z,5.5
2023-07-03T19:23:36.881Z,4.7
2023-07-03T19:29:21.197Z,5
2023-07-03T19:35:05.629Z,4.9
2023-07-03T19:40:49.790Z,5.3
2023-07-03T19:46:33.992Z,4.8
2023-07-03T19:52:18.316Z,5.2
2023-07-03T19:58:03.706Z,4
2023-07-03T20:03:48.791Z,4.6
2023-07-03T20:09:33.363Z,4.3
2023-07-03T20:15:17.665Z,5.6
2023-07-03T20:21:01.928Z,5.3
2023-07-03T20:26:46.129Z,3.6
2023-07-03T20:32:30.435Z,5.4
2023-07-03T20:38:15.074Z,4.9
2023-07-03T20:43:59.734Z,4.9
2023-07-03T20:49:44.205Z,4.8
2023-07-03T20:55:28.344Z,5.1
2023-07-03T21:01:18.780Z,4.7
2023-07-03T21:07:03.152Z,5.7
2023-07-03T21:12:47.427Z,5
2023-07-03T21:18:31.576Z,4.8
2023-07-03T21:24:16.412Z,5.3
2023-07-03T21:30:00.556Z,6
2023-07-03T21:35:44.822Z,6.3
2023-07-03T21:41:30.223Z,5.9
2023-07-03T21:47:14.640Z,5.1
2023-07-03T21:52:58.825Z,5.4
2023-07-03T21:58:44.207Z,5.4
2023-07-03T22:04:28.517Z,5.4
2023-07-03T22:10:13.561Z,4.6
2023-07-03T22:15:58.334Z,4.5
2023-07-03T22:21:43.543Z,5
2023-07-03T22:27:27.814Z,5.8
2023-07-03T22:33:12.281Z,4.6
2023-07-03T22:38:56.704Z,7.1
2023-07-03T22:44:40.920Z,6.5
2023-07-03T22:50:25.441Z,7
2023-07-03T22:56:10.588Z,6
2023-07-03T23:01:55.730Z,4.4
2023-07-03T23:07:40.118Z,5.4
2023-07-03T23:13:25.362Z,6
2023-07-03T23:19:10.785Z,6.6
2023-07-03T23:24:56.562Z,5.7
2023-07-03T23:30:41.870Z,5.8
2023-07-03T23:36:26.277Z,6.9
2023-07-03T23:42:11.124Z,6.4
2023-07-03T23:47:55.529Z,5.9
2023-07-03T23:53:40.581Z,4.9
2023-07-03T23:59:24.694Z,7.1
